sensor_id;sensor_type;location;lat;lon;timestamp;P1;durP1;ratioP1;P2;durP2;ratioP2
12869;SDS011;6503;48.572;13.460;2022-07-23T00:01:55;16.35;;;12.70;;
12869;SDS011;6503;48.572;13.460;2022-07-23T00:05:12;18.08;;;12.45;;
12869;SDS011;6503;48.572;13.460;2022-07-23T00:07:39;17.60;;;12.73;;
12869;SDS011;6503;48.572;13.460;2022-07-23T00:10:27;17.23;;;13.23;;
12869;SDS011;6503;48.572;13.460;2022-07-23T00:13:11;16.20;;;13.13;;
12869;SDS011;6503;48.572;13.460;2022-07-23T00:15:56;15.88;;;12.40;;
12869;SDS011;6503;48.572;13.460;2022-07-23T00:18:34;16.75;;;13.18;;
12869;SDS011;6503;48.572;13.460;2022-07-23T00:26:59;15.50;;;11.82;;
12869;SDS011;6503;48.572;13.460;2022-07-23T00:29:27;14.68;;;11.40;;
12869;SDS011;6503;48.572;13.460;2022-07-23T00:31:56;13.57;;;12.07;;
12869;SDS011;6503;48.572;13.460;2022-07-23T00:34:24;13.45;;;12.05;;
12869;SDS011;6503;48.572;13.460;2022-07-23T00:39:57;16.63;;;12.90;;
12869;SDS011;6503;48.572;13.460;2022-07-23T00:42:39;17.00;;;12.95;;
12869;SDS011;6503;48.572;13.460;2022-07-23T00:47:53;17.30;;;13.32;;
12869;SDS011;6503;48.572;13.460;2022-07-23T00:50:24;16.75;;;13.75;;
12869;SDS011;6503;48.572;13.460;2022-07-23T00:53:00;15.95;;;12.82;;
12869;SDS011;6503;48.572;13.460;2022-07-23T00:55:34;15.43;;;13.40;;
12869;SDS011;6503;48.572;13.460;2022-07-23T00:58:11;14.07;;;12.15;;
12869;SDS011;6503;48.572;13.460;2022-07-23T01:00:50;14.23;;;12.07;;
12869;SDS011;6503;48.572;13.460;2022-07-23T01:03:52;13.70;;;12.30;;
12869;SDS011;6503;48.572;13.460;2022-07-23T01:09:52;14.13;;;12.50;;
12869;SDS011;6503;48.572;13.460;2022-07-23T01:12:23;20.33;;;12.93;;
12869;SDS011;6503;48.572;13.460;2022-07-23T01:21:28;16.75;;;12.68;;
12869;SDS011;6503;48.572;13.460;2022-07-23T01:24:00;16.60;;;12.95;;
12869;SDS011;6503;48.572;13.460;2022-07-23T01:26:38;17.42;;;13.15;;
12869;SDS011;6503;48.572;13.460;2022-07-23T01:29:57;14.57;;;12.50;;
12869;SDS011;6503;48.572;13.460;2022-07-23T01:32:53;15.30;;;13.02;;
12869;SDS011;6503;48.572;13.460;2022-07-23T01:35:21;18.33;;;12.50;;
12869;SDS011;6503;48.572;13.460;2022-07-23T01:38:06;16.02;;;12.70;;
12869;SDS011;6503;48.572;13.460;2022-07-23T01:46:59;20.00;;;14.20;;
12869;SDS011;6503;48.572;13.460;2022-07-23T01:49:40;16.50;;;13.60;;
12869;SDS011;6503;48.572;13.460;2022-07-23T01:53:06;16.67;;;14.25;;
12869;SDS011;6503;48.572;13.460;2022-07-23T01:55:39;17.02;;;13.98;;
12869;SDS011;6503;48.572;13.460;2022-07-23T01:58:19;16.73;;;13.77;;
12869;SDS011;6503;48.572;13.460;2022-07-23T02:00:50;17.75;;;14.57;;
12869;SDS011;6503;48.572;13.460;2022-07-23T02:03:29;14.63;;;12.82;;
12869;SDS011;6503;48.572;13.460;2022-07-23T02:06:27;14.80;;;12.85;;
12869;SDS011;6503;48.572;13.460;2022-07-23T02:09:02;13.93;;;11.48;;
12869;SDS011;6503;48.572;13.460;2022-07-23T02:11:39;15.07;;;13.07;;
12869;SDS011;6503;48.572;13.460;2022-07-23T02:14:14;14.18;;;12.70;;
12869;SDS011;6503;48.572;13.460;2022-07-23T02:16:54;15.00;;;13.43;;
12869;SDS011;6503;48.572;13.460;2022-07-23T02:19:47;14.40;;;12.90;;
12869;SDS011;6503;48.572;13.460;2022-07-23T02:22:19;17.17;;;13.02;;
12869;SDS011;6503;48.572;13.460;2022-07-23T02:33:09;15.48;;;13.63;;
12869;SDS011;6503;48.572;13.460;2022-07-23T02:35:36;17.25;;;14.18;;
12869;SDS011;6503;48.572;13.460;2022-07-23T02:38:02;15.82;;;13.35;;
12869;SDS011;6503;48.572;13.460;2022-07-23T02:40:29;14.82;;;12.55;;
12869;SDS011;6503;48.572;13.460;2022-07-23T02:42:56;15.43;;;13.43;;
12869;SDS011;6503;48.572;13.460;2022-07-23T02:45:23;23.48;;;13.55;;
12869;SDS011;6503;48.572;13.460;2022-07-23T02:47:50;16.88;;;13.00;;
12869;SDS011;6503;48.572;13.460;2022-07-23T02:50:19;16.33;;;13.05;;
12869;SDS011;6503;48.572;13.460;2022-07-23T02:52:46;14.43;;;12.00;;
12869;SDS011;6503;48.572;13.460;2022-07-23T02:55:13;19.30;;;12.82;;
12869;SDS011;6503;48.572;13.460;2022-07-23T02:57:39;16.20;;;12.45;;
12869;SDS011;6503;48.572;13.460;2022-07-23T03:00:07;17.80;;;13.63;;
12869;SDS011;6503;48.572;13.460;2022-07-23T03:02:34;15.73;;;12.85;;
12869;SDS011;6503;48.572;13.460;2022-07-23T03:05:01;14.32;;;12.77;;
12869;SDS011;6503;48.572;13.460;2022-07-23T03:07:30;16.33;;;13.45;;
12869;SDS011;6503;48.572;13.460;2022-07-23T03:09:57;15.25;;;12.82;;
12869;SDS011;6503;48.572;13.460;2022-07-23T03:12:24;14.20;;;12.70;;
12869;SDS011;6503;48.572;13.460;2022-07-23T03:14:51;16.30;;;12.70;;
12869;SDS011;6503;48.572;13.460;2022-07-23T03:17:17;15.40;;;13.00;;
12869;SDS011;6503;48.572;13.460;2022-07-23T03:19:44;15.43;;;12.10;;
12869;SDS011;6503;48.572;13.460;2022-07-23T03:22:11;14.45;;;12.90;;
12869;SDS011;6503;48.572;13.460;2022-07-23T03:24:39;16.48;;;13.15;;
12869;SDS011;6503;48.572;13.460;2022-07-23T03:27:21;19.80;;;13.55;;
12869;SDS011;6503;48.572;13.460;2022-07-23T03:29:48;19.02;;;13.45;;
12869;SDS011;6503;48.572;13.460;2022-07-23T03:32:15;14.30;;;12.75;;
12869;SDS011;6503;48.572;13.460;2022-07-23T03:34:42;16.10;;;12.68;;
12869;SDS011;6503;48.572;13.460;2022-07-23T03:37:09;14.10;;;12.48;;
12869;SDS011;6503;48.572;13.460;2022-07-23T03:39:36;14.75;;;12.82;;
12869;SDS011;6503;48.572;13.460;2022-07-23T03:42:04;18.92;;;12.93;;
12869;SDS011;6503;48.572;13.460;2022-07-23T03:44:32;16.58;;;13.05;;
12869;SDS011;6503;48.572;13.460;2022-07-23T03:46:59;15.45;;;12.77;;
12869;SDS011;6503;48.572;13.460;2022-07-23T03:49:25;15.50;;;13.13;;
12869;SDS011;6503;48.572;13.460;2022-07-23T03:51:52;13.60;;;11.98;;
12869;SDS011;6503;48.572;13.460;2022-07-23T03:54:19;14.38;;;12.30;;
12869;SDS011;6503;48.572;13.460;2022-07-23T03:56:46;15.13;;;12.65;;
12869;SDS011;6503;48.572;13.460;2022-07-23T03:59:14;13.45;;;12.05;;
12869;SDS011;6503;48.572;13.460;2022-07-23T04:01:41;15.95;;;13.82;;
12869;SDS011;6503;48.572;13.460;2022-07-23T04:04:08;17.15;;;13.25;;
12869;SDS011;6503;48.572;13.460;2022-07-23T04:06:36;15.13;;;12.75;;
12869;SDS011;6503;48.572;13.460;2022-07-23T04:09:03;17.23;;;14.30;;
12869;SDS011;6503;48.572;13.460;2022-07-23T04:11:30;17.40;;;14.63;;
12869;SDS011;6503;48.572;13.460;2022-07-23T04:13:58;16.55;;;14.05;;
12869;SDS011;6503;48.572;13.460;2022-07-23T04:16:26;20.30;;;14.77;;
12869;SDS011;6503;48.572;13.460;2022-07-23T04:18:53;16.48;;;14.38;;
12869;SDS011;6503;48.572;13.460;2022-07-23T04:21:20;16.92;;;15.15;;
12869;SDS011;6503;48.572;13.460;2022-07-23T04:23:51;16.52;;;14.25;;
12869;SDS011;6503;48.572;13.460;2022-07-23T04:28:44;19.92;;;15.40;;
12869;SDS011;6503;48.572;13.460;2022-07-23T04:31:11;17.75;;;14.40;;
12869;SDS011;6503;48.572;13.460;2022-07-23T04:33:39;15.98;;;14.23;;
12869;SDS011;6503;48.572;13.460;2022-07-23T04:36:06;16.83;;;13.50;;
12869;SDS011;6503;48.572;13.460;2022-07-23T04:38:33;16.65;;;13.75;;
12869;SDS011;6503;48.572;13.460;2022-07-23T04:41:00;17.60;;;14.05;;
12869;SDS011;6503;48.572;13.460;2022-07-23T04:43:27;15.68;;;13.18;;
12869;SDS011;6503;48.572;13.460;2022-07-23T04:45:54;15.40;;;13.07;;
12869;SDS011;6503;48.572;13.460;2022-07-23T04:48:21;16.50;;;13.07;;
12869;SDS011;6503;48.572;13.460;2022-07-23T04:50:49;15.25;;;12.82;;
12869;SDS011;6503;48.572;13.460;2022-07-23T04:53:16;15.93;;;13.38;;
12869;SDS011;6503;48.572;13.460;2022-07-23T04:55:43;15.75;;;13.80;;
12869;SDS011;6503;48.572;13.460;2022-07-23T04:58:10;14.18;;;12.65;;
12869;SDS011;6503;48.572;13.460;2022-07-23T05:00:37;14.68;;;13.15;;
12869;SDS011;6503;48.572;13.460;2022-07-23T05:03:04;15.95;;;12.82;;
12869;SDS011;6503;48.572;13.460;2022-07-23T05:05:31;17.55;;;13.32;;
12869;SDS011;6503;48.572;13.460;2022-07-23T05:07:59;15.27;;;13.35;;
12869;SDS011;6503;48.572;13.460;2022-07-23T05:10:26;15.00;;;13.38;;
12869;SDS011;6503;48.572;13.460;2022-07-23T05:12:52;18.10;;;13.38;;
12869;SDS011;6503;48.572;13.460;2022-07-23T05:15:26;17.98;;;14.10;;
12869;SDS011;6503;48.572;13.460;2022-07-23T05:17:53;14.60;;;12.68;;
12869;SDS011;6503;48.572;13.460;2022-07-23T05:20:21;15.88;;;12.38;;
12869;SDS011;6503;48.572;13.460;2022-07-23T05:22:48;14.95;;;12.43;;
12869;SDS011;6503;48.572;13.460;2022-07-23T05:25:17;16.70;;;12.02;;
12869;SDS011;6503;48.572;13.460;2022-07-23T05:27:44;17.45;;;13.10;;
12869;SDS011;6503;48.572;13.460;2022-07-23T05:30:12;14.90;;;13.35;;
12869;SDS011;6503;48.572;13.460;2022-07-23T05:32:39;18.35;;;13.13;;
12869;SDS011;6503;48.572;13.460;2022-07-23T05:35:06;15.38;;;12.68;;
12869;SDS011;6503;48.572;13.460;2022-07-23T05:37:33;15.60;;;13.68;;
12869;SDS011;6503;48.572;13.460;2022-07-23T05:40:01;16.67;;;13.73;;
12869;SDS011;6503;48.572;13.460;2022-07-23T05:42:30;14.65;;;13.05;;
12869;SDS011;6503;48.572;13.460;2022-07-23T05:44:57;19.35;;;13.18;;
12869;SDS011;6503;48.572;13.460;2022-07-23T05:47:24;18.08;;;13.52;;
12869;SDS011;6503;48.572;13.460;2022-07-23T05:49:52;19.38;;;13.18;;
12869;SDS011;6503;48.572;13.460;2022-07-23T05:52:19;14.88;;;12.77;;
12869;SDS011;6503;48.572;13.460;2022-07-23T05:54:45;15.20;;;11.85;;
12869;SDS011;6503;48.572;13.460;2022-07-23T05:57:12;15.57;;;11.55;;
12869;SDS011;6503;48.572;13.460;2022-07-23T05:59:40;13.73;;;11.05;;
12869;SDS011;6503;48.572;13.460;2022-07-23T06:02:07;13.77;;;11.68;;
12869;SDS011;6503;48.572;13.460;2022-07-23T06:04:34;13.15;;;10.45;;
12869;SDS011;6503;48.572;13.460;2022-07-23T06:07:01;13.85;;;9.98;;
12869;SDS011;6503;48.572;13.460;2022-07-23T06:09:28;14.63;;;10.32;;
12869;SDS011;6503;48.572;13.460;2022-07-23T06:11:55;13.20;;;9.63;;
12869;SDS011;6503;48.572;13.460;2022-07-23T06:14:21;10.35;;;9.07;;
12869;SDS011;6503;48.572;13.460;2022-07-23T06:16:50;12.13;;;9.50;;
12869;SDS011;6503;48.572;13.460;2022-07-23T06:19:16;14.32;;;9.40;;
12869;SDS011;6503;48.572;13.460;2022-07-23T06:21:43;12.45;;;9.32;;
12869;SDS011;6503;48.572;13.460;2022-07-23T06:24:10;11.05;;;9.25;;
12869;SDS011;6503;48.572;13.460;2022-07-23T06:26:37;16.58;;;9.52;;
12869;SDS011;6503;48.572;13.460;2022-07-23T06:29:04;11.23;;;9.93;;
12869;SDS011;6503;48.572;13.460;2022-07-23T06:31:31;11.07;;;9.65;;
12869;SDS011;6503;48.572;13.460;2022-07-23T06:33:59;10.50;;;8.32;;
12869;SDS011;6503;48.572;13.460;2022-07-23T06:36:26;14.63;;;8.68;;
12869;SDS011;6503;48.572;13.460;2022-07-23T06:38:53;10.52;;;7.85;;
12869;SDS011;6503;48.572;13.460;2022-07-23T06:41:20;13.82;;;7.70;;
12869;SDS011;6503;48.572;13.460;2022-07-23T06:43:48;11.50;;;8.18;;
12869;SDS011;6503;48.572;13.460;2022-07-23T06:46:14;7.93;;;6.95;;
12869;SDS011;6503;48.572;13.460;2022-07-23T06:48:41;11.70;;;7.65;;
12869;SDS011;6503;48.572;13.460;2022-07-23T06:51:10;11.07;;;7.40;;
12869;SDS011;6503;48.572;13.460;2022-07-23T06:53:38;11.18;;;7.30;;
12869;SDS011;6503;48.572;13.460;2022-07-23T06:56:06;12.77;;;8.32;;
12869;SDS011;6503;48.572;13.460;2022-07-23T06:58:33;8.93;;;7.20;;
12869;SDS011;6503;48.572;13.460;2022-07-23T07:00:59;8.32;;;7.13;;
12869;SDS011;6503;48.572;13.460;2022-07-23T07:03:27;8.32;;;7.30;;
12869;SDS011;6503;48.572;13.460;2022-07-23T07:05:54;11.13;;;6.47;;
12869;SDS011;6503;48.572;13.460;2022-07-23T07:08:23;8.57;;;7.10;;
12869;SDS011;6503;48.572;13.460;2022-07-23T07:10:50;8.70;;;6.93;;
12869;SDS011;6503;48.572;13.460;2022-07-23T07:13:17;8.02;;;7.20;;
12869;SDS011;6503;48.572;13.460;2022-07-23T07:15:44;8.63;;;7.40;;
12869;SDS011;6503;48.572;13.460;2022-07-23T07:18:11;17.60;;;8.85;;
12869;SDS011;6503;48.572;13.460;2022-07-23T07:20:40;12.07;;;8.85;;
12869;SDS011;6503;48.572;13.460;2022-07-23T07:23:06;18.15;;;9.93;;
12869;SDS011;6503;48.572;13.460;2022-07-23T07:25:35;16.10;;;10.38;;
12869;SDS011;6503;48.572;13.460;2022-07-23T07:28:02;19.50;;;10.82;;
12869;SDS011;6503;48.572;13.460;2022-07-23T07:30:29;10.85;;;9.60;;
12869;SDS011;6503;48.572;13.460;2022-07-23T07:32:56;12.30;;;10.27;;
12869;SDS011;6503;48.572;13.460;2022-07-23T07:35:25;12.63;;;10.27;;
12869;SDS011;6503;48.572;13.460;2022-07-23T07:37:53;12.85;;;10.25;;
12869;SDS011;6503;48.572;13.460;2022-07-23T07:40:21;12.82;;;9.82;;
12869;SDS011;6503;48.572;13.460;2022-07-23T07:42:50;16.02;;;9.75;;
12869;SDS011;6503;48.572;13.460;2022-07-23T07:45:19;13.15;;;10.43;;
12869;SDS011;6503;48.572;13.460;2022-07-23T07:47:47;17.52;;;10.32;;
12869;SDS011;6503;48.572;13.460;2022-07-23T07:50:14;13.63;;;10.32;;
12869;SDS011;6503;48.572;13.460;2022-07-23T07:52:41;11.50;;;10.30;;
12869;SDS011;6503;48.572;13.460;2022-07-23T07:55:09;18.33;;;10.90;;
12869;SDS011;6503;48.572;13.460;2022-07-23T07:57:37;13.70;;;10.93;;
12869;SDS011;6503;48.572;13.460;2022-07-23T08:00:07;14.93;;;10.88;;
12869;SDS011;6503;48.572;13.460;2022-07-23T08:02:40;12.85;;;10.95;;
12869;SDS011;6503;48.572;13.460;2022-07-23T08:05:08;14.57;;;11.18;;
12869;SDS011;6503;48.572;13.460;2022-07-23T08:07:36;12.25;;;10.05;;
12869;SDS011;6503;48.572;13.460;2022-07-23T08:10:05;11.82;;;9.43;;
12869;SDS011;6503;48.572;13.460;2022-07-23T08:12:38;12.50;;;9.05;;
12869;SDS011;6503;48.572;13.460;2022-07-23T08:15:08;12.77;;;8.77;;
12869;SDS011;6503;48.572;13.460;2022-07-23T08:17:35;12.00;;;7.88;;
12869;SDS011;6503;48.572;13.460;2022-07-23T08:20:03;12.27;;;8.23;;
12869;SDS011;6503;48.572;13.460;2022-07-23T08:22:43;13.70;;;8.18;;
12869;SDS011;6503;48.572;13.460;2022-07-23T08:27:38;8.98;;;6.07;;
12869;SDS011;6503;48.572;13.460;2022-07-23T08:30:08;6.97;;;6.22;;
12869;SDS011;6503;48.572;13.460;2022-07-23T08:32:48;7.47;;;6.60;;
12869;SDS011;6503;48.572;13.460;2022-07-23T08:35:23;8.63;;;5.78;;
12869;SDS011;6503;48.572;13.460;2022-07-23T08:37:51;8.27;;;6.00;;
12869;SDS011;6503;48.572;13.460;2022-07-23T08:40:19;9.13;;;6.05;;
12869;SDS011;6503;48.572;13.460;2022-07-23T08:42:47;6.50;;;5.40;;
12869;SDS011;6503;48.572;13.460;2022-07-23T08:45:17;9.10;;;5.30;;
12869;SDS011;6503;48.572;13.460;2022-07-23T08:47:50;6.28;;;5.20;;
12869;SDS011;6503;48.572;13.460;2022-07-23T08:50:19;6.72;;;5.32;;
12869;SDS011;6503;48.572;13.460;2022-07-23T08:52:46;9.05;;;5.45;;
12869;SDS011;6503;48.572;13.460;2022-07-23T08:55:18;7.68;;;4.55;;
12869;SDS011;6503;48.572;13.460;2022-07-23T08:57:49;9.63;;;4.72;;
12869;SDS011;6503;48.572;13.460;2022-07-23T09:00:33;5.47;;;4.57;;
12869;SDS011;6503;48.572;13.460;2022-07-23T09:03:01;8.23;;;4.43;;
12869;SDS011;6503;48.572;13.460;2022-07-23T09:08:27;6.95;;;4.07;;
12869;SDS011;6503;48.572;13.460;2022-07-23T09:14:42;8.30;;;4.88;;
12869;SDS011;6503;48.572;13.460;2022-07-23T09:20:30;5.30;;;4.25;;
12869;SDS011;6503;48.572;13.460;2022-07-23T09:23:19;10.57;;;5.20;;
12869;SDS011;6503;48.572;13.460;2022-07-23T09:25:57;5.47;;;4.50;;
12869;SDS011;6503;48.572;13.460;2022-07-23T09:28:50;5.13;;;4.32;;
12869;SDS011;6503;48.572;13.460;2022-07-23T09:31:34;13.18;;;4.65;;
12869;SDS011;6503;48.572;13.460;2022-07-23T09:34:40;5.97;;;4.32;;
12869;SDS011;6503;48.572;13.460;2022-07-23T09:37:23;8.10;;;4.20;;
12869;SDS011;6503;48.572;13.460;2022-07-23T09:39:52;8.98;;;4.10;;
12869;SDS011;6503;48.572;13.460;2022-07-23T09:45:27;7.22;;;4.45;;
12869;SDS011;6503;48.572;13.460;2022-07-23T09:48:11;5.90;;;4.20;;
12869;SDS011;6503;48.572;13.460;2022-07-23T09:51:04;6.30;;;4.25;;
12869;SDS011;6503;48.572;13.460;2022-07-23T09:53:32;8.10;;;4.05;;
12869;SDS011;6503;48.572;13.460;2022-07-23T09:56:12;9.57;;;4.22;;
12869;SDS011;6503;48.572;13.460;2022-07-23T09:58:42;7.25;;;3.95;;
12869;SDS011;6503;48.572;13.460;2022-07-23T10:01:16;5.35;;;3.97;;
12869;SDS011;6503;48.572;13.460;2022-07-23T10:03:46;5.30;;;4.45;;
12869;SDS011;6503;48.572;13.460;2022-07-23T10:06:30;6.72;;;4.10;;
12869;SDS011;6503;48.572;13.460;2022-07-23T10:08:58;4.45;;;4.03;;
12869;SDS011;6503;48.572;13.460;2022-07-23T10:11:25;5.13;;;4.25;;
12869;SDS011;6503;48.572;13.460;2022-07-23T10:13:55;8.50;;;4.65;;
12869;SDS011;6503;48.572;13.460;2022-07-23T10:16:23;6.47;;;3.85;;
12869;SDS011;6503;48.572;13.460;2022-07-23T10:18:51;4.93;;;4.10;;
12869;SDS011;6503;48.572;13.460;2022-07-23T10:21:20;7.22;;;4.50;;
12869;SDS011;6503;48.572;13.460;2022-07-23T10:24:01;5.03;;;3.70;;
12869;SDS011;6503;48.572;13.460;2022-07-23T10:26:37;5.15;;;4.07;;
12869;SDS011;6503;48.572;13.460;2022-07-23T10:29:17;5.50;;;4.20;;
12869;SDS011;6503;48.572;13.460;2022-07-23T10:31:56;4.65;;;4.25;;
12869;SDS011;6503;48.572;13.460;2022-07-23T10:34:29;6.50;;;4.38;;
12869;SDS011;6503;48.572;13.460;2022-07-23T10:37:07;5.70;;;4.00;;
12869;SDS011;6503;48.572;13.460;2022-07-23T10:39:44;6.38;;;4.55;;
12869;SDS011;6503;48.572;13.460;2022-07-23T10:42:12;7.05;;;4.40;;
12869;SDS011;6503;48.572;13.460;2022-07-23T10:44:41;4.47;;;4.07;;
12869;SDS011;6503;48.572;13.460;2022-07-23T10:47:11;4.95;;;3.95;;
12869;SDS011;6503;48.572;13.460;2022-07-23T10:50:04;5.85;;;4.15;;
12869;SDS011;6503;48.572;13.460;2022-07-23T10:52:47;4.95;;;3.95;;
12869;SDS011;6503;48.572;13.460;2022-07-23T10:58:45;6.27;;;4.33;;
12869;SDS011;6503;48.572;13.460;2022-07-23T11:01:33;5.00;;;4.50;;
12869;SDS011;6503;48.572;13.460;2022-07-23T11:04:02;7.15;;;5.95;;
12869;SDS011;6503;48.572;13.460;2022-07-23T11:09:40;7.65;;;4.20;;
12869;SDS011;6503;48.572;13.460;2022-07-23T11:15:03;6.68;;;4.38;;
12869;SDS011;6503;48.572;13.460;2022-07-23T11:17:32;5.93;;;4.72;;
12869;SDS011;6503;48.572;13.460;2022-07-23T11:20:30;5.25;;;4.55;;
12869;SDS011;6503;48.572;13.460;2022-07-23T11:22:57;5.43;;;4.43;;
12869;SDS011;6503;48.572;13.460;2022-07-23T11:25:33;7.50;;;4.43;;
12869;SDS011;6503;48.572;13.460;2022-07-23T11:28:13;6.35;;;4.63;;
12869;SDS011;6503;48.572;13.460;2022-07-23T11:30:42;9.27;;;4.53;;
12869;SDS011;6503;48.572;13.460;2022-07-23T11:33:17;9.05;;;4.60;;
12869;SDS011;6503;48.572;13.460;2022-07-23T11:35:49;8.48;;;4.50;;
12869;SDS011;6503;48.572;13.460;2022-07-23T11:38:27;9.95;;;4.60;;
12869;SDS011;6503;48.572;13.460;2022-07-23T11:40:56;5.68;;;4.55;;
12869;SDS011;6503;48.572;13.460;2022-07-23T11:43:26;12.98;;;5.00;;
12869;SDS011;6503;48.572;13.460;2022-07-23T11:45:53;5.80;;;4.90;;
12869;SDS011;6503;48.572;13.460;2022-07-23T11:48:25;6.03;;;4.32;;
12869;SDS011;6503;48.572;13.460;2022-07-23T11:50:55;7.07;;;4.63;;
12869;SDS011;6503;48.572;13.460;2022-07-23T11:53:23;4.95;;;4.45;;
12869;SDS011;6503;48.572;13.460;2022-07-23T11:55:50;5.00;;;4.53;;
12869;SDS011;6503;48.572;13.460;2022-07-23T11:58:17;5.85;;;4.82;;
12869;SDS011;6503;48.572;13.460;2022-07-23T12:00:46;5.70;;;4.80;;
12869;SDS011;6503;48.572;13.460;2022-07-23T12:03:13;4.80;;;4.38;;
12869;SDS011;6503;48.572;13.460;2022-07-23T12:05:40;6.60;;;4.72;;
12869;SDS011;6503;48.572;13.460;2022-07-23T12:08:24;6.30;;;4.85;;
12869;SDS011;6503;48.572;13.460;2022-07-23T12:20:41;6.32;;;5.07;;
12869;SDS011;6503;48.572;13.460;2022-07-23T12:23:30;7.07;;;5.30;;
12869;SDS011;6503;48.572;13.460;2022-07-23T12:26:16;7.03;;;5.00;;
12869;SDS011;6503;48.572;13.460;2022-07-23T12:28:51;7.53;;;5.18;;
12869;SDS011;6503;48.572;13.460;2022-07-23T12:31:25;5.22;;;4.72;;
12869;SDS011;6503;48.572;13.460;2022-07-23T12:33:54;7.65;;;5.20;;
12869;SDS011;6503;48.572;13.460;2022-07-23T12:39:53;7.32;;;5.30;;
12869;SDS011;6503;48.572;13.460;2022-07-23T12:43:21;8.90;;;5.30;;
12869;SDS011;6503;48.572;13.460;2022-07-23T12:45:56;7.63;;;5.20;;
12869;SDS011;6503;48.572;13.460;2022-07-23T12:49:25;6.45;;;4.70;;
12869;SDS011;6503;48.572;13.460;2022-07-23T12:52:25;5.45;;;4.95;;
12869;SDS011;6503;48.572;13.460;2022-07-23T12:54:59;6.82;;;5.13;;
12869;SDS011;6503;48.572;13.460;2022-07-23T13:01:23;8.68;;;4.60;;
12869;SDS011;6503;48.572;13.460;2022-07-23T13:04:31;6.78;;;4.72;;
12869;SDS011;6503;48.572;13.460;2022-07-23T13:07:52;6.20;;;4.28;;
12869;SDS011;6503;48.572;13.460;2022-07-23T13:10:18;8.13;;;4.60;;
12869;SDS011;6503;48.572;13.460;2022-07-23T13:12:45;4.90;;;4.40;;
12869;SDS011;6503;48.572;13.460;2022-07-23T13:15:12;4.63;;;4.20;;
12869;SDS011;6503;48.572;13.460;2022-07-23T13:17:40;5.60;;;5.10;;
12869;SDS011;6503;48.572;13.460;2022-07-23T13:20:09;10.27;;;4.90;;
12869;SDS011;6503;48.572;13.460;2022-07-23T13:22:37;7.72;;;4.78;;
12869;SDS011;6503;48.572;13.460;2022-07-23T13:25:06;6.28;;;4.40;;
12869;SDS011;6503;48.572;13.460;2022-07-23T13:27:34;11.20;;;4.65;;
12869;SDS011;6503;48.572;13.460;2022-07-23T13:30:01;4.88;;;4.30;;
12869;SDS011;6503;48.572;13.460;2022-07-23T13:32:29;8.18;;;4.82;;
12869;SDS011;6503;48.572;13.460;2022-07-23T13:34:57;7.35;;;5.15;;
12869;SDS011;6503;48.572;13.460;2022-07-23T13:37:24;7.72;;;4.60;;
12869;SDS011;6503;48.572;13.460;2022-07-23T13:39:51;10.07;;;4.75;;
12869;SDS011;6503;48.572;13.460;2022-07-23T13:42:20;6.85;;;4.55;;
12869;SDS011;6503;48.572;13.460;2022-07-23T13:44:47;9.10;;;4.82;;
12869;SDS011;6503;48.572;13.460;2022-07-23T13:47:14;5.50;;;4.57;;
12869;SDS011;6503;48.572;13.460;2022-07-23T13:49:41;5.72;;;4.43;;
12869;SDS011;6503;48.572;13.460;2022-07-23T13:52:08;5.00;;;4.47;;
12869;SDS011;6503;48.572;13.460;2022-07-23T13:54:35;5.10;;;4.60;;
12869;SDS011;6503;48.572;13.460;2022-07-23T13:57:03;10.25;;;4.85;;
12869;SDS011;6503;48.572;13.460;2022-07-23T13:59:31;5.85;;;4.43;;
12869;SDS011;6503;48.572;13.460;2022-07-23T14:02:01;9.43;;;4.90;;
12869;SDS011;6503;48.572;13.460;2022-07-23T14:04:28;5.45;;;4.90;;
12869;SDS011;6503;48.572;13.460;2022-07-23T14:06:55;5.45;;;4.85;;
12869;SDS011;6503;48.572;13.460;2022-07-23T14:09:22;8.95;;;5.25;;
12869;SDS011;6503;48.572;13.460;2022-07-23T14:11:49;9.00;;;5.13;;
12869;SDS011;6503;48.572;13.460;2022-07-23T14:14:17;6.40;;;5.13;;
12869;SDS011;6503;48.572;13.460;2022-07-23T14:16:50;5.47;;;4.60;;
12869;SDS011;6503;48.572;13.460;2022-07-23T14:19:19;7.22;;;4.70;;
12869;SDS011;6503;48.572;13.460;2022-07-23T14:21:47;5.78;;;5.07;;
12869;SDS011;6503;48.572;13.460;2022-07-23T14:24:14;6.72;;;5.10;;
12869;SDS011;6503;48.572;13.460;2022-07-23T14:26:41;4.95;;;4.45;;
12869;SDS011;6503;48.572;13.460;2022-07-23T14:29:08;6.97;;;4.80;;
12869;SDS011;6503;48.572;13.460;2022-07-23T14:31:38;5.38;;;4.88;;
12869;SDS011;6503;48.572;13.460;2022-07-23T14:34:06;6.13;;;5.05;;
12869;SDS011;6503;48.572;13.460;2022-07-23T14:36:34;7.30;;;5.13;;
12869;SDS011;6503;48.572;13.460;2022-07-23T14:39:01;7.82;;;6.60;;
12869;SDS011;6503;48.572;13.460;2022-07-23T14:41:34;7.63;;;5.65;;
12869;SDS011;6503;48.572;13.460;2022-07-23T14:44:01;5.40;;;4.90;;
12869;SDS011;6503;48.572;13.460;2022-07-23T14:46:29;6.18;;;5.35;;
12869;SDS011;6503;48.572;13.460;2022-07-23T14:48:56;17.63;;;8.45;;
12869;SDS011;6503;48.572;13.460;2022-07-23T14:51:27;6.72;;;5.22;;
12869;SDS011;6503;48.572;13.460;2022-07-23T14:54:02;6.03;;;5.43;;
12869;SDS011;6503;48.572;13.460;2022-07-23T14:56:43;6.20;;;5.18;;
12869;SDS011;6503;48.572;13.460;2022-07-23T14:59:17;6.13;;;5.50;;
12869;SDS011;6503;48.572;13.460;2022-07-23T15:01:44;6.20;;;5.60;;
12869;SDS011;6503;48.572;13.460;2022-07-23T15:04:11;6.85;;;5.43;;
12869;SDS011;6503;48.572;13.460;2022-07-23T15:06:40;8.68;;;6.03;;
12869;SDS011;6503;48.572;13.460;2022-07-23T15:09:06;6.53;;;5.15;;
12869;SDS011;6503;48.572;13.460;2022-07-23T15:11:33;6.00;;;5.40;;
12869;SDS011;6503;48.572;13.460;2022-07-23T15:14:02;8.20;;;5.35;;
12869;SDS011;6503;48.572;13.460;2022-07-23T15:16:31;7.68;;;5.85;;
12869;SDS011;6503;48.572;13.460;2022-07-23T15:18:59;7.07;;;5.65;;
12869;SDS011;6503;48.572;13.460;2022-07-23T15:21:26;6.30;;;5.70;;
12869;SDS011;6503;48.572;13.460;2022-07-23T15:23:55;5.82;;;5.22;;
12869;SDS011;6503;48.572;13.460;2022-07-23T15:26:24;6.20;;;5.60;;
12869;SDS011;6503;48.572;13.460;2022-07-23T15:28:51;6.45;;;5.38;;
12869;SDS011;6503;48.572;13.460;2022-07-23T15:31:18;6.10;;;4.88;;
12869;SDS011;6503;48.572;13.460;2022-07-23T15:34:02;7.10;;;5.03;;
12869;SDS011;6503;48.572;13.460;2022-07-23T15:36:34;8.00;;;5.18;;
12869;SDS011;6503;48.572;13.460;2022-07-23T15:39:02;7.07;;;5.78;;
12869;SDS011;6503;48.572;13.460;2022-07-23T15:41:31;9.18;;;5.85;;
12869;SDS011;6503;48.572;13.460;2022-07-23T15:43:58;7.22;;;5.32;;
12869;SDS011;6503;48.572;13.460;2022-07-23T15:46:28;12.55;;;5.70;;
12869;SDS011;6503;48.572;13.460;2022-07-23T15:48:55;8.15;;;5.15;;
12869;SDS011;6503;48.572;13.460;2022-07-23T15:51:22;9.55;;;5.28;;
12869;SDS011;6503;48.572;13.460;2022-07-23T15:53:49;6.65;;;4.80;;
12869;SDS011;6503;48.572;13.460;2022-07-23T15:56:18;9.95;;;5.45;;
12869;SDS011;6503;48.572;13.460;2022-07-23T15:58:45;6.18;;;5.15;;
12869;SDS011;6503;48.572;13.460;2022-07-23T16:01:12;5.43;;;4.57;;
12869;SDS011;6503;48.572;13.460;2022-07-23T16:03:41;7.43;;;5.57;;
12869;SDS011;6503;48.572;13.460;2022-07-23T16:06:08;6.70;;;4.97;;
12869;SDS011;6503;48.572;13.460;2022-07-23T16:08:52;8.23;;;5.30;;
12869;SDS011;6503;48.572;13.460;2022-07-23T16:11:29;17.33;;;5.45;;
12869;SDS011;6503;48.572;13.460;2022-07-23T16:13:59;8.60;;;5.05;;
12869;SDS011;6503;48.572;13.460;2022-07-23T16:16:37;7.00;;;5.50;;
12869;SDS011;6503;48.572;13.460;2022-07-23T16:19:07;7.78;;;6.07;;
12869;SDS011;6503;48.572;13.460;2022-07-23T16:21:41;8.35;;;5.65;;
12869;SDS011;6503;48.572;13.460;2022-07-23T16:24:08;10.45;;;5.63;;